createdAt,value
2018-06-13T00:00:49.305Z,2.40
2018-06-13T00:01:49.320Z,2.30
2018-06-13T00:02:49.336Z,2.60
2018-06-13T00:03:49.352Z,2.50
2018-06-13T00:04:49.365Z,2.60
2018-06-13T00:05:49.388Z,2.40
2018-06-13T00:06:49.400Z,2.60
2018-06-13T00:07:49.421Z,2.70
2018-06-13T00:08:49.457Z,2.50
2018-06-13T00:09:49.441Z,2.50
2018-06-13T00:10:49.456Z,2.50
2018-06-13T00:11:49.472Z,2.80
2018-06-13T00:12:49.485Z,2.40
2018-06-13T00:13:49.501Z,2.30
2018-06-13T00:14:49.515Z,2.60
2018-06-13T00:15:49.536Z,2.60
2018-06-13T00:16:49.547Z,2.70
2018-06-13T00:17:49.563Z,2.60
2018-06-13T00:18:49.576Z,2.70
2018-06-13T00:19:49.594Z,2.60
2018-06-13T00:20:49.609Z,2.70
2018-06-13T00:21:49.624Z,2.50
2018-06-13T00:22:49.640Z,2.40
2018-06-13T00:23:49.656Z,2.50
2018-06-13T00:24:49.667Z,2.60
2018-06-13T00:25:49.686Z,2.60
2018-06-13T00:26:49.700Z,2.70
2018-06-13T00:27:49.716Z,2.40
2018-06-13T00:28:49.734Z,2.80
2018-06-13T00:29:49.745Z,2.70
2018-06-13T00:30:49.761Z,2.70
2018-06-13T00:31:49.777Z,2.80
2018-06-13T00:32:49.789Z,2.60
2018-06-13T00:33:49.809Z,3.00
2018-06-13T00:34:49.821Z,2.80
2018-06-13T00:35:49.836Z,3.00
2018-06-13T00:36:49.859Z,2.90
2018-06-13T00:37:49.880Z,2.90
2018-06-13T00:38:49.885Z,2.40
2018-06-13T00:39:49.898Z,2.60
2018-06-13T00:40:49.913Z,2.90
2018-06-13T00:41:49.933Z,2.70
2018-06-13T00:42:49.952Z,2.90
2018-06-13T00:43:49.960Z,3.00
2018-06-13T00:44:50.221Z,3.00
2018-06-13T00:45:50.095Z,2.90
2018-06-13T00:46:50.005Z,2.80
2018-06-13T00:47:50.040Z,3.10
2018-06-13T00:48:50.035Z,2.80
2018-06-13T00:49:50.045Z,3.00
2018-06-13T00:50:50.061Z,3.20
2018-06-13T00:51:50.076Z,2.70
2018-06-13T00:52:50.092Z,3.00
2018-06-13T00:53:50.106Z,3.00
2018-06-13T00:54:50.122Z,3.30
2018-06-13T00:55:50.139Z,3.10
2018-06-13T00:56:50.155Z,3.00
2018-06-13T00:57:50.168Z,3.00
2018-06-13T00:58:50.181Z,3.30
2018-06-13T00:59:50.208Z,2.90
2018-06-13T01:00:50.215Z,2.90
2018-06-13T01:01:50.229Z,2.80
2018-06-13T01:02:50.246Z,3.00
2018-06-13T01:03:50.276Z,3.10
2018-06-13T01:04:50.299Z,3.00
2018-06-13T01:05:50.292Z,3.10
2018-06-13T01:06:50.312Z,3.20
2018-06-13T01:07:50.323Z,2.90
2018-06-13T01:08:50.333Z,3.00
2018-06-13T01:09:50.349Z,3.00
2018-06-13T01:10:50.368Z,3.10
2018-06-13T01:11:50.379Z,3.00
2018-06-13T01:12:50.399Z,3.10
2018-06-13T01:13:50.409Z,3.20
2018-06-13T01:14:50.426Z,3.30
2018-06-13T01:15:50.442Z,3.20
2018-06-13T01:16:50.567Z,3.30
2018-06-13T01:17:50.777Z,3.40
2018-06-13T01:18:50.492Z,3.10
2018-06-13T01:19:50.501Z,3.30
2018-06-13T01:20:50.519Z,3.40
2018-06-13T01:21:50.534Z,3.00
2018-06-13T01:22:50.545Z,3.10
2018-06-13T01:23:50.562Z,3.20
2018-06-13T01:24:50.574Z,3.10
2018-06-13T01:25:50.593Z,3.50
2018-06-13T01:26:50.606Z,3.50
2018-06-13T01:27:50.620Z,3.40
2018-06-13T01:28:50.636Z,3.00
2018-06-13T01:29:50.648Z,3.30
2018-06-13T01:30:50.665Z,3.40
2018-06-13T01:31:50.703Z,3.10
2018-06-13T01:32:50.694Z,3.30
2018-06-13T01:33:50.704Z,3.40
2018-06-13T01:34:50.723Z,3.30
2018-06-13T01:35:50.738Z,3.40
2018-06-13T01:36:50.749Z,3.30
2018-06-13T01:37:50.777Z,3.30
2018-06-13T01:38:50.778Z,3.30
2018-06-13T01:39:50.806Z,3.20
2018-06-13T01:40:50.808Z,3.30
2018-06-13T01:41:50.824Z,3.30
2018-06-13T01:42:50.839Z,3.40
2018-06-13T01:43:50.856Z,3.60
2018-06-13T01:44:50.870Z,3.00
2018-06-13T01:45:50.883Z,3.50
2018-06-13T01:46:50.898Z,3.80
2018-06-13T01:47:50.966Z,3.30
2018-06-13T01:49:50.972Z,3.50
2018-06-13T01:50:51.075Z,3.20
2018-06-13T01:51:50.985Z,3.10
2018-06-13T01:52:51.004Z,3.10
2018-06-13T01:53:51.009Z,3.20
2018-06-13T01:54:51.019Z,2.90
2018-06-13T01:55:51.033Z,3.30
2018-06-13T01:56:51.052Z,3.60
2018-06-13T01:57:51.064Z,3.30
2018-06-13T01:58:51.078Z,3.20
2018-06-13T01:59:51.099Z,3.30
2018-06-13T02:00:51.107Z,3.20
2018-06-13T02:01:51.126Z,3.30
2018-06-13T02:02:51.137Z,3.40
2018-06-13T02:03:51.158Z,3.30
2018-06-13T02:04:51.171Z,3.40
2018-06-13T02:05:51.187Z,3.30
2018-06-13T02:06:51.201Z,3.10
2018-06-13T02:07:51.214Z,3.30
2018-06-13T02:08:51.235Z,3.20
2018-06-13T02:09:51.244Z,3.10
2018-06-13T02:10:51.263Z,3.60
2018-06-13T02:11:51.279Z,4.00
2018-06-13T02:12:51.291Z,3.30
2018-06-13T02:13:51.307Z,3.50
2018-06-13T02:14:51.331Z,3.70
2018-06-13T02:15:51.336Z,3.40
2018-06-13T02:16:51.350Z,3.90
2018-06-13T02:17:51.377Z,3.80
2018-06-13T02:18:51.533Z,3.50
2018-06-13T02:19:51.547Z,3.70
2018-06-13T02:20:51.409Z,3.50
2018-06-13T02:21:51.827Z,3.60
2018-06-13T02:22:51.449Z,3.80
2018-06-13T02:23:51.977Z,3.90
2018-06-13T02:24:51.507Z,3.70
2018-06-13T02:25:51.487Z,3.50
2018-06-13T02:26:51.501Z,3.40
2018-06-13T02:27:51.516Z,3.20
2018-06-13T02:28:51.530Z,3.10
2018-06-13T02:29:51.543Z,3.50
2018-06-13T02:30:51.561Z,3.30
2018-06-13T02:31:51.579Z,3.40
2018-06-13T02:32:51.589Z,3.50
2018-06-13T02:33:51.607Z,3.20
2018-06-13T02:34:51.618Z,3.00
2018-06-13T02:35:51.633Z,3.50
2018-06-13T02:36:51.652Z,3.10
2018-06-13T02:37:51.664Z,3.50
2018-06-13T02:38:51.683Z,3.40
2018-06-13T02:39:51.695Z,3.30
2018-06-13T02:40:51.710Z,2.90
2018-06-13T02:41:51.772Z,2.80
2018-06-13T02:42:51.739Z,3.70
2018-06-13T02:43:51.753Z,3.80
2018-06-13T02:44:51.775Z,3.40
2018-06-13T02:45:51.780Z,3.50
2018-06-13T02:46:51.797Z,3.20
2018-06-13T02:47:51.812Z,3.20
2018-06-13T02:48:51.827Z,3.20
2018-06-13T02:49:51.843Z,2.90
2018-06-13T02:50:51.871Z,3.20
2018-06-13T02:51:51.874Z,3.40
2018-06-13T02:52:51.891Z,2.80
2018-06-13T02:54:51.936Z,3.10
2018-06-13T02:55:51.964Z,3.10
2018-06-13T02:56:51.948Z,3.20
2018-06-13T02:57:51.962Z,3.40
2018-06-13T02:58:51.977Z,3.80
2018-06-13T02:59:51.994Z,3.50
2018-06-13T03:00:52.006Z,3.50
2018-06-13T03:01:52.019Z,3.40
2018-06-13T03:02:52.035Z,3.60
2018-06-13T03:03:52.052Z,3.20
2018-06-13T03:04:52.071Z,3.40
2018-06-13T03:05:52.085Z,3.40
2018-06-13T03:06:52.099Z,3.90
2018-06-13T03:07:52.112Z,3.50
2018-06-13T03:08:52.127Z,3.60
2018-06-13T03:09:52.144Z,3.60
2018-06-13T03:10:52.153Z,3.80
2018-06-13T03:11:52.169Z,4.00
2018-06-13T03:12:52.192Z,3.40
2018-06-13T03:13:52.205Z,3.80
2018-06-13T03:14:52.218Z,3.70
2018-06-13T03:15:52.241Z,3.70
2018-06-13T03:16:52.247Z,3.90
2018-06-13T03:17:52.259Z,3.60
2018-06-13T03:18:52.272Z,3.70
2018-06-13T03:21:52.311Z,3.70
2018-06-13T03:22:52.328Z,4.30
2018-06-13T03:23:52.341Z,4.00
2018-06-13T03:24:52.356Z,3.90
2018-06-13T03:25:52.373Z,3.80
2018-06-13T03:26:52.398Z,3.90
2018-06-13T03:27:52.401Z,4.20
2018-06-13T03:28:52.421Z,3.80
2018-06-13T03:29:52.432Z,4.10
2018-06-13T03:30:52.446Z,4.40
2018-06-13T03:31:52.464Z,4.10
2018-06-13T03:32:52.475Z,4.40
2018-06-13T03:33:52.498Z,4.50
2018-06-13T03:34:52.517Z,4.00
2018-06-13T03:35:52.524Z,4.30
2018-06-13T03:36:52.558Z,4.70
2018-06-13T03:37:52.549Z,4.50
2018-06-13T03:38:52.566Z,4.50
2018-06-13T03:39:52.584Z,4.30
2018-06-13T03:40:52.595Z,4.30
2018-06-13T03:41:52.616Z,5.10
2018-06-13T03:42:52.625Z,4.20
2018-06-13T03:43:52.643Z,4.50
2018-06-13T03:44:52.655Z,4.60
2018-06-13T03:45:52.671Z,4.40
2018-06-13T03:46:52.685Z,4.40
2018-06-13T03:47:52.700Z,4.40
2018-06-13T03:48:52.714Z,5.00
2018-06-13T03:49:52.867Z,4.60
2018-06-13T03:50:52.742Z,5.10
2018-06-13T03:51:53.058Z,4.40
2018-06-13T03:52:52.776Z,4.40
2018-06-13T03:53:52.794Z,4.20
2018-06-13T03:54:52.806Z,4.50
2018-06-13T03:55:52.857Z,4.80
2018-06-13T03:57:52.858Z,4.90
2018-06-13T03:58:52.950Z,5.20
2018-06-13T03:59:52.912Z,5.30
2018-06-13T04:00:52.907Z,5.70
2018-06-13T04:01:52.926Z,4.60
2018-06-13T04:02:52.926Z,4.60
2018-06-13T04:03:52.940Z,5.10
2018-06-13T04:04:52.956Z,5.10
2018-06-13T04:05:52.970Z,4.60
2018-06-13T04:06:52.982Z,4.90
2018-06-13T04:07:53.000Z,4.50
2018-06-13T04:08:53.020Z,5.10
2018-06-13T04:09:53.033Z,4.40
2018-06-13T04:10:53.045Z,5.00
2018-06-13T04:11:53.059Z,5.00
2018-06-13T04:12:53.074Z,4.40
2018-06-13T04:13:53.089Z,4.60
2018-06-13T04:14:53.104Z,4.70
2018-06-13T04:15:53.121Z,4.40
2018-06-13T04:16:53.137Z,4.40
2018-06-13T04:17:53.149Z,4.80
2018-06-13T04:18:53.163Z,4.20
2018-06-13T04:19:53.179Z,4.20
2018-06-13T04:20:53.197Z,4.60
2018-06-13T04:21:53.231Z,4.40
2018-06-13T04:22:53.238Z,4.50
2018-06-13T04:23:53.239Z,4.10
2018-06-13T04:24:53.254Z,4.60
2018-06-13T04:25:53.371Z,4.00
2018-06-13T04:26:53.871Z,4.10
2018-06-13T04:27:53.313Z,4.50
2018-06-13T04:28:53.343Z,4.10
2018-06-13T04:29:53.340Z,3.60
2018-06-13T04:30:53.343Z,4.30
2018-06-13T04:31:53.384Z,4.10
2018-06-13T04:32:53.399Z,4.00
2018-06-13T04:33:53.407Z,3.60
2018-06-13T04:34:53.402Z,3.70
2018-06-13T04:35:53.442Z,3.40
2018-06-13T04:36:53.532Z,3.60
2018-06-13T04:37:53.448Z,3.60
2018-06-13T04:38:53.462Z,3.80
2018-06-13T04:39:53.908Z,3.70
2018-06-13T04:40:53.492Z,3.60
2018-06-13T04:41:53.563Z,3.60
2018-06-13T04:42:53.523Z,3.30
2018-06-13T04:43:53.567Z,4.10
2018-06-13T04:44:53.547Z,3.80
2018-06-13T04:45:53.563Z,3.80
2018-06-13T04:46:53.578Z,3.50
2018-06-13T04:47:53.596Z,3.40
2018-06-13T04:48:53.637Z,3.30
2018-06-13T04:49:53.626Z,3.60
2018-06-13T04:50:53.644Z,3.30
2018-06-13T04:51:53.657Z,3.50
2018-06-13T04:53:57.741Z,3.10
2018-06-13T04:54:53.920Z,3.10
2018-06-13T04:55:53.839Z,3.80
2018-06-13T04:56:53.788Z,3.40
2018-06-13T04:57:53.750Z,3.30
2018-06-13T04:58:53.763Z,3.20
2018-06-13T04:59:53.979Z,3.70
2018-06-13T05:00:54.167Z,3.20
2018-06-13T05:01:53.813Z,3.40
2018-06-13T05:02:53.832Z,3.00
2018-06-13T05:03:53.860Z,3.60
2018-06-13T05:04:53.900Z,3.40
2018-06-13T05:05:53.863Z,3.70
2018-06-13T05:06:54.416Z,3.50
2018-06-13T05:07:53.900Z,3.40
2018-06-13T05:08:53.911Z,3.80
2018-06-13T05:09:53.924Z,3.80
2018-06-13T05:10:53.980Z,3.20
2018-06-13T05:11:54.263Z,3.60
2018-06-13T05:12:53.970Z,3.40
2018-06-13T05:13:54.045Z,3.50
2018-06-13T05:14:53.991Z,3.40
2018-06-13T05:15:54.045Z,3.60
2018-06-13T05:16:54.025Z,3.50
2018-06-13T05:17:54.049Z,3.50
2018-06-13T05:18:54.060Z,4.00
2018-06-13T05:19:54.069Z,3.60
2018-06-13T05:20:54.096Z,4.00
2018-06-13T05:21:54.129Z,3.90
2018-06-13T05:22:54.112Z,4.10
2018-06-13T05:23:54.141Z,3.60
2018-06-13T05:24:54.144Z,3.40
2018-06-13T05:25:54.157Z,3.20
2018-06-13T05:26:54.172Z,3.60
2018-06-13T05:27:54.188Z,3.00
2018-06-13T05:28:55.002Z,3.30
2018-06-13T05:29:54.223Z,2.90
2018-06-13T05:30:54.842Z,3.00
2018-06-13T05:31:54.251Z,3.30
2018-06-13T05:32:54.271Z,3.30
2018-06-13T05:35:54.513Z,3.20
2018-06-13T05:38:57.852Z,3.00
2018-06-13T05:39:54.622Z,3.00
2018-06-13T05:40:54.384Z,3.30
2018-06-13T05:41:54.559Z,3.60
2018-06-13T05:42:54.790Z,3.30
2018-06-13T05:43:54.485Z,2.90
2018-06-13T05:44:54.680Z,3.50
2018-06-13T05:45:55.782Z,3.40
2018-06-13T05:46:54.477Z,3.30
2018-06-13T05:47:54.498Z,2.80
2018-06-13T05:48:54.512Z,3.50
2018-06-13T05:50:54.591Z,3.50
2018-06-13T05:51:54.556Z,3.90
2018-06-13T05:52:54.567Z,4.00
2018-06-13T05:53:54.593Z,3.90
2018-06-13T05:56:56.319Z,3.90
2018-06-13T05:57:55.839Z,3.70
2018-06-13T05:58:54.673Z,4.20
2018-06-13T05:59:54.687Z,3.60
2018-06-13T06:00:54.699Z,4.10
2018-06-13T06:01:54.751Z,4.20
2018-06-13T06:02:54.726Z,4.10
2018-06-13T06:03:54.755Z,4.10
2018-06-13T06:04:54.764Z,4.00
2018-06-13T06:05:55.341Z,4.60
2018-06-13T06:06:54.832Z,4.20
2018-06-13T06:08:55.031Z,4.20
2018-06-13T06:09:54.959Z,4.10
2018-06-13T06:10:54.874Z,4.20
2018-06-13T06:11:54.907Z,3.70
2018-06-13T06:12:54.940Z,4.00
2018-06-13T06:13:54.973Z,4.20
2018-06-13T06:14:55.404Z,4.40
2018-06-13T06:15:54.965Z,4.30
2018-06-13T06:16:54.969Z,4.50
2018-06-13T06:17:55.718Z,3.90
2018-06-13T06:19:55.059Z,4.10
2018-06-13T06:20:55.146Z,4.10
2018-06-13T06:21:55.012Z,4.00
2018-06-13T06:22:55.031Z,4.20
2018-06-13T06:23:55.094Z,4.40
2018-06-13T06:24:55.298Z,3.90
2018-06-13T06:25:55.120Z,3.80
2018-06-13T06:26:55.100Z,3.40
2018-06-13T06:27:55.105Z,3.60
2018-06-13T06:29:55.128Z,4.10
2018-06-13T06:30:55.154Z,3.40
2018-06-13T06:31:55.159Z,3.40
2018-06-13T06:32:55.176Z,3.50
2018-06-13T06:33:55.189Z,3.50
2018-06-13T06:34:55.204Z,3.50
2018-06-13T06:35:55.226Z,3.30
2018-06-13T06:36:55.292Z,3.50
2018-06-13T06:37:55.262Z,3.30
2018-06-13T06:39:56.006Z,3.70
2018-06-13T06:41:55.359Z,3.60
2018-06-13T06:42:55.348Z,3.20
2018-06-13T06:43:55.348Z,3.20
2018-06-13T06:44:55.358Z,3.40
2018-06-13T06:45:55.379Z,3.20
2018-06-13T06:46:55.404Z,3.10
2018-06-13T06:47:55.404Z,3.40
2018-06-13T06:48:55.427Z,3.20
2018-06-13T06:51:55.500Z,3.60
2018-06-13T06:52:55.485Z,3.50
2018-06-13T06:53:56.435Z,3.50
2018-06-13T06:54:55.753Z,3.50
2018-06-13T06:55:55.551Z,3.20
2018-06-13T06:56:55.547Z,2.90
2018-06-13T06:57:55.560Z,3.50
2018-06-13T06:58:55.577Z,3.30
2018-06-13T06:59:55.608Z,2.80
2018-06-13T07:01:55.629Z,3.00
2018-06-13T07:02:55.920Z,3.10
2018-06-13T07:03:55.675Z,2.50
2018-06-13T07:04:55.674Z,2.90
2018-06-13T07:05:55.691Z,3.00
2018-06-13T07:06:55.705Z,2.70
2018-06-13T07:07:55.729Z,2.70
2018-06-13T07:08:55.731Z,3.00
2018-06-13T07:09:55.748Z,2.80
2018-06-13T07:10:55.784Z,2.60
2018-06-13T07:11:56.141Z,2.90
2018-06-13T07:12:55.792Z,2.30
2018-06-13T07:13:55.997Z,2.40
2018-06-13T07:14:56.106Z,2.10
2018-06-13T07:16:56.130Z,2.20
2018-06-13T07:17:55.897Z,2.10
2018-06-13T07:18:56.510Z,2.60
2018-06-13T07:19:55.898Z,2.40
2018-06-13T07:20:55.916Z,2.50
2018-06-13T07:22:55.944Z,2.80
2018-06-13T07:24:55.988Z,2.40
2018-06-13T07:25:56.024Z,2.70
2018-06-13T07:26:56.033Z,2.20
2018-06-13T07:28:56.110Z,2.50
2018-06-13T07:29:56.056Z,2.20
2018-06-13T07:31:56.120Z,2.40
2018-06-13T07:32:56.109Z,2.60
2018-06-13T07:33:56.119Z,2.50
2018-06-13T07:34:56.721Z,2.40
2018-06-13T07:35:56.161Z,3.00
2018-06-13T07:36:56.206Z,2.10
2018-06-13T07:37:56.195Z,2.40
2018-06-13T07:38:56.216Z,2.30
2018-06-13T07:39:56.219Z,2.40
2018-06-13T07:40:56.498Z,2.20
2018-06-13T07:41:56.244Z,2.40
2018-06-13T07:42:56.267Z,2.40
2018-06-13T07:43:56.837Z,2.40
2018-06-13T07:44:56.350Z,2.40
2018-06-13T07:45:56.452Z,2.90
2018-06-13T07:46:56.451Z,2.30
2018-06-13T07:47:56.378Z,2.30
2018-06-13T07:48:56.354Z,2.30
2018-06-13T07:49:56.437Z,2.30
2018-06-13T07:50:56.386Z,2.30
2018-06-13T07:51:56.400Z,2.40
2018-06-13T07:55:56.502Z,2.30
2018-06-13T07:56:56.903Z,2.50
2018-06-13T07:57:56.512Z,2.50
2018-06-13T07:58:56.516Z,2.40
2018-06-13T07:59:56.528Z,2.20
2018-06-13T08:00:56.549Z,1.90
2018-06-13T08:01:56.558Z,2.50
2018-06-13T08:02:56.578Z,2.40
2018-06-13T08:03:56.592Z,2.30
2018-06-13T08:04:57.233Z,2.40
2018-06-13T08:05:56.631Z,2.00
2018-06-13T08:06:56.998Z,2.00
2018-06-13T08:07:56.655Z,2.20
2018-06-13T08:08:56.711Z,2.00
2018-06-13T08:09:56.684Z,2.10
2018-06-13T08:10:56.695Z,2.20
2018-06-13T08:11:56.804Z,2.80
2018-06-13T08:12:56.738Z,3.40
2018-06-13T08:13:56.751Z,2.50
2018-06-13T08:14:56.768Z,2.10
2018-06-13T08:15:56.846Z,3.40
2018-06-13T08:17:56.990Z,2.20
2018-06-13T08:18:56.827Z,2.20
2018-06-13T08:19:57.045Z,3.20
2018-06-13T08:20:56.870Z,2.00
2018-06-13T08:21:56.893Z,2.00
2018-06-13T08:22:56.903Z,1.80
2018-06-13T08:23:57.217Z,1.70
2018-06-13T08:25:56.944Z,2.80
2018-06-13T08:26:57.221Z,2.20
2018-06-13T08:27:57.622Z,2.20
2018-06-13T08:28:57.712Z,2.00
2018-06-13T08:29:57.006Z,2.30
2018-06-13T08:30:57.057Z,2.20
2018-06-13T08:31:57.033Z,2.40
2018-06-13T08:32:57.304Z,2.20
2018-06-13T08:33:57.070Z,2.50
2018-06-13T08:34:57.106Z,2.70
2018-06-13T08:35:57.144Z,2.30
2018-06-13T08:36:57.101Z,2.40
2018-06-13T08:37:57.118Z,2.00
2018-06-13T08:38:57.135Z,2.60
2018-06-13T08:39:57.211Z,2.30
2018-06-13T08:46:19.197Z,2.60
2018-06-13T08:47:19.208Z,2.40
2018-06-13T08:48:19.224Z,2.30
2018-06-13T08:49:19.240Z,2.10
2018-06-13T08:50:19.255Z,2.10
2018-06-13T08:51:19.271Z,2.50
2018-06-13T08:52:19.311Z,2.40
2018-06-13T08:53:19.621Z,2.80
2018-06-13T08:54:19.485Z,2.30
2018-06-13T08:55:19.453Z,2.30
2018-06-13T08:56:19.617Z,2.50
2018-06-13T08:58:40.371Z,2.20
2018-06-13T08:59:40.387Z,2.20
2018-06-13T09:00:41.681Z,2.40
2018-06-13T09:01:40.416Z,1.80
2018-06-13T09:02:40.437Z,2.40
2018-06-13T09:03:40.450Z,2.30
2018-06-13T09:04:40.465Z,2.10
2018-06-13T09:05:40.770Z,2.60
2018-06-13T09:06:40.515Z,3.20
2018-06-13T09:07:40.805Z,2.50
2018-06-13T09:08:40.865Z,3.20
2018-06-13T09:09:40.547Z,2.20
2018-06-13T09:10:40.564Z,5.30
2018-06-13T09:11:40.582Z,2.10
2018-06-13T09:12:40.595Z,2.40
2018-06-13T09:13:40.621Z,2.00
2018-06-13T09:14:40.628Z,2.20
2018-06-13T09:15:40.657Z,2.00
2018-06-13T09:17:40.805Z,2.20
2018-06-13T09:18:40.696Z,2.10
2018-06-13T09:19:40.728Z,1.80
2018-06-13T09:21:40.746Z,1.60
2018-06-13T09:22:40.770Z,1.90
2018-06-13T09:23:40.837Z,1.80
2018-06-13T09:24:40.801Z,2.10
2018-06-13T09:25:40.815Z,2.10
2018-06-13T09:26:40.834Z,1.80
2018-06-13T09:27:40.850Z,1.60
2018-06-13T09:28:40.874Z,1.70
2018-06-13T09:29:40.887Z,1.70
2018-06-13T09:30:40.903Z,1.60
2018-06-13T09:31:40.921Z,1.60
2018-06-13T09:32:41.695Z,1.80
2018-06-13T09:33:41.005Z,1.60
2018-06-13T09:34:40.987Z,1.70
2018-06-13T09:35:40.991Z,1.70
2018-06-13T09:36:41.016Z,1.80
2018-06-13T09:37:41.190Z,1.90
2018-06-13T09:38:41.077Z,1.80
2018-06-13T09:39:41.507Z,1.80
2018-06-13T09:40:41.081Z,1.60
2018-06-13T09:41:41.095Z,1.80
2018-06-13T09:42:41.114Z,1.70
2018-06-13T09:43:41.150Z,1.80
2018-06-13T09:44:41.166Z,1.80
2018-06-13T09:45:41.216Z,1.90
2018-06-13T09:46:48.915Z,2.00
2018-06-13T09:47:41.696Z,1.70
2018-06-13T09:48:41.443Z,2.30
2018-06-13T09:49:41.269Z,1.70
2018-06-13T09:50:41.319Z,1.80
2018-06-13T09:51:41.277Z,1.90
2018-06-13T09:52:41.560Z,1.70
2018-06-13T09:53:41.491Z,2.00
2018-06-13T09:54:41.403Z,1.80
2018-06-13T09:55:41.350Z,1.80
2018-06-13T09:56:41.372Z,1.80
2018-06-13T09:57:41.383Z,1.90
2018-06-13T09:58:41.398Z,1.90
2018-06-13T09:59:41.419Z,1.80
2018-06-13T10:00:41.440Z,1.70
2018-06-13T10:01:41.536Z,1.60
2018-06-13T10:02:41.469Z,2.10
2018-06-13T10:04:41.592Z,1.90
2018-06-13T10:05:41.527Z,1.50
2018-06-13T10:06:41.552Z,1.80
2018-06-13T10:07:41.560Z,1.90
2018-06-13T10:08:41.583Z,1.70
2018-06-13T10:09:41.595Z,1.90
2018-06-13T10:10:41.613Z,1.90
2018-06-13T10:11:41.628Z,1.70
2018-06-13T10:12:41.658Z,1.50
2018-06-13T10:13:41.682Z,2.00
2018-06-13T10:14:41.717Z,3.40
2018-06-13T10:15:42.292Z,2.30
2018-06-13T10:16:41.714Z,1.90
2018-06-13T10:17:41.730Z,1.80
2018-06-13T10:18:41.764Z,2.20
2018-06-13T10:19:41.766Z,1.70
2018-06-13T10:20:43.507Z,1.90
2018-06-13T10:21:42.267Z,2.00
2018-06-13T10:22:41.945Z,1.90
2018-06-13T10:23:41.838Z,1.80
2018-06-13T10:24:41.856Z,1.90
2018-06-13T10:25:41.872Z,1.90
2018-06-13T10:26:41.949Z,2.20
2018-06-13T10:27:41.910Z,1.70
2018-06-13T10:28:41.931Z,1.70
2018-06-13T10:29:41.944Z,1.90
2018-06-13T10:30:42.274Z,2.60
2018-06-13T10:31:41.981Z,1.90
2018-06-13T10:32:41.998Z,1.90
2018-06-13T10:33:42.018Z,2.10
2018-06-13T10:34:42.039Z,1.80
2018-06-13T10:35:42.050Z,2.00
2018-06-13T10:36:42.068Z,1.80
2018-06-13T10:37:42.093Z,1.70
2018-06-13T10:38:42.104Z,1.90
2018-06-13T10:39:42.124Z,1.70
2018-06-13T10:40:42.141Z,2.00
2018-06-13T10:41:42.182Z,1.80
2018-06-13T10:42:42.569Z,1.90
2018-06-13T10:43:42.233Z,2.00
2018-06-13T10:44:42.236Z,2.20
2018-06-13T10:45:42.231Z,1.70
2018-06-13T10:46:42.306Z,1.80
2018-06-13T10:47:42.273Z,1.90
2018-06-13T10:48:42.350Z,1.90
2018-06-13T10:49:42.307Z,1.80
2018-06-13T10:50:42.322Z,1.70
2018-06-13T10:51:42.370Z,2.00
2018-06-13T10:52:42.375Z,1.60
2018-06-13T10:53:42.375Z,2.00
2018-06-13T10:54:42.394Z,2.30
2018-06-13T10:55:42.483Z,2.00
2018-06-13T10:56:42.431Z,2.20
2018-06-13T10:57:42.448Z,2.30
2018-06-13T10:58:42.482Z,2.20
2018-06-13T10:59:42.498Z,2.20
2018-06-13T11:00:42.505Z,2.10
2018-06-13T11:01:42.772Z,2.30
2018-06-13T11:02:42.550Z,2.30
2018-06-13T11:03:42.564Z,2.20
2018-06-13T11:04:42.630Z,1.90
2018-06-13T11:05:42.598Z,2.30
2018-06-13T11:06:42.615Z,2.10
2018-06-13T11:07:42.634Z,2.10
2018-06-13T11:08:43.758Z,1.90
2018-06-13T11:09:42.675Z,1.90
2018-06-13T11:10:42.693Z,1.90
2018-06-13T11:11:42.707Z,1.90
2018-06-13T11:12:42.725Z,1.90
2018-06-13T11:13:42.751Z,1.90
2018-06-13T11:14:42.766Z,1.90
2018-06-13T11:15:42.779Z,2.00
2018-06-13T11:16:42.826Z,2.30
2018-06-13T11:17:42.817Z,2.00
2018-06-13T11:18:42.832Z,2.10
2018-06-13T11:19:42.851Z,2.10
2018-06-13T11:20:42.871Z,1.80
2018-06-13T11:21:42.901Z,2.00
2018-06-13T11:22:42.910Z,2.20
2018-06-13T11:23:42.930Z,2.60
2018-06-13T11:24:42.992Z,2.20
2018-06-13T11:25:42.959Z,1.90
2018-06-13T11:26:42.976Z,2.10
2018-06-13T11:27:42.995Z,2.30
2018-06-13T11:28:43.015Z,2.40
2018-06-13T11:29:43.028Z,1.90
2018-06-13T11:30:43.151Z,2.00
2018-06-13T11:31:43.064Z,2.70
2018-06-13T11:32:43.408Z,2.50
2018-06-13T11:33:43.104Z,2.20
2018-06-13T11:34:43.126Z,2.30
2018-06-13T11:35:43.275Z,2.50
2018-06-13T11:36:43.154Z,2.10
2018-06-13T11:37:43.299Z,2.60
2018-06-13T11:38:43.398Z,2.20
2018-06-13T11:39:43.220Z,2.40
2018-06-13T11:40:43.463Z,2.20
2018-06-13T11:41:43.241Z,2.40
2018-06-13T11:42:43.291Z,2.10
2018-06-13T11:43:43.300Z,2.10
2018-06-13T11:44:43.296Z,2.30
2018-06-13T11:45:43.319Z,2.40
2018-06-13T11:46:43.335Z,2.30
2018-06-13T11:47:43.348Z,2.20
2018-06-13T11:48:43.370Z,2.30
2018-06-13T11:49:43.385Z,2.40
2018-06-13T11:50:43.409Z,2.20
2018-06-13T11:51:43.422Z,2.50
2018-06-13T11:52:43.445Z,2.30
2018-06-13T11:53:43.459Z,2.50
2018-06-13T11:54:43.474Z,2.40
2018-06-13T11:55:43.494Z,2.30
2018-06-13T11:56:43.528Z,2.30
2018-06-13T11:57:43.605Z,2.50
2018-06-13T11:58:43.548Z,2.70
2018-06-13T11:59:43.567Z,2.20
2018-06-13T12:00:43.584Z,2.60
2018-06-13T12:01:43.637Z,2.70
2018-06-13T12:02:43.621Z,2.50
2018-06-13T12:03:43.638Z,2.20
2018-06-13T12:04:43.655Z,2.00
2018-06-13T12:05:43.676Z,2.20
2018-06-13T12:06:43.693Z,1.70
2018-06-13T12:07:43.742Z,1.80
2018-06-13T12:08:43.728Z,1.90
2018-06-13T12:09:43.749Z,1.90
2018-06-13T12:10:43.766Z,1.80
2018-06-13T12:11:43.787Z,1.90
2018-06-13T12:12:43.814Z,2.20
2018-06-13T12:15:43.949Z,1.70
2018-06-13T12:16:43.957Z,2.10
2018-06-13T12:17:43.898Z,2.00
2018-06-13T12:18:43.912Z,2.20
2018-06-13T12:19:44.135Z,2.00
2018-06-13T12:20:43.954Z,2.00
2018-06-13T12:21:43.969Z,2.00
2018-06-13T12:22:43.989Z,1.70
2018-06-13T12:23:44.008Z,1.80
2018-06-13T12:24:44.028Z,2.30
2018-06-13T12:25:44.051Z,2.20
2018-06-13T12:26:44.065Z,2.00
2018-06-13T12:27:44.093Z,1.90
2018-06-13T12:28:44.123Z,2.50
2018-06-13T12:29:44.151Z,1.90
2018-06-13T12:30:44.143Z,2.10
2018-06-13T12:31:44.164Z,2.00
2018-06-13T12:32:44.182Z,2.10
2018-06-13T12:33:44.209Z,1.90
2018-06-13T12:34:44.219Z,2.10
2018-06-13T12:35:44.237Z,2.30
2018-06-13T12:36:44.257Z,2.00
2018-06-13T12:37:44.332Z,1.90
2018-06-13T12:38:44.295Z,2.30
2018-06-13T12:39:44.354Z,1.90
2018-06-13T12:40:44.336Z,2.00
2018-06-13T12:41:44.359Z,1.80
2018-06-13T12:42:44.375Z,2.10
2018-06-13T12:43:44.400Z,2.00
2018-06-13T12:44:44.423Z,2.00
2018-06-13T12:45:44.435Z,2.00
2018-06-13T12:46:44.458Z,2.00
2018-06-13T12:47:44.481Z,1.90
2018-06-13T12:48:44.497Z,1.90
2018-06-13T12:49:44.519Z,2.00
2018-06-13T12:50:44.561Z,1.80
2018-06-13T12:51:44.562Z,1.80
2018-06-13T12:52:44.580Z,1.90
2018-06-13T12:53:44.603Z,2.10
2018-06-13T12:54:44.618Z,2.10
2018-06-13T12:55:44.639Z,2.00
2018-06-13T12:56:44.660Z,1.90
2018-06-13T12:57:44.676Z,1.90
2018-06-13T12:58:44.764Z,2.00
2018-06-13T12:59:44.718Z,2.20
2018-06-13T13:00:44.736Z,1.80
2018-06-13T13:01:44.754Z,2.20
2018-06-13T13:02:44.779Z,2.00
2018-06-13T13:03:44.802Z,1.90
2018-06-13T13:04:44.838Z,2.00
2018-06-13T13:05:45.243Z,2.10
2018-06-13T13:06:44.912Z,1.90
2018-06-13T13:07:44.871Z,2.10
2018-06-13T13:08:44.883Z,2.30
2018-06-13T13:09:44.935Z,2.20
2018-06-13T13:10:44.927Z,2.20
2018-06-13T13:11:45.120Z,2.00
2018-06-13T13:12:45.322Z,2.00
2018-06-13T13:13:44.981Z,1.60
2018-06-13T13:14:44.997Z,1.70
2018-06-13T13:15:45.182Z,1.60
2018-06-13T13:16:45.397Z,1.70
2018-06-13T13:17:45.191Z,2.50
2018-06-13T13:18:45.265Z,1.90
2018-06-13T13:19:45.207Z,2.40
2018-06-13T13:20:45.590Z,1.90
2018-06-13T13:21:45.138Z,1.90
2018-06-13T13:22:45.152Z,1.70
2018-06-13T13:23:45.759Z,1.70
2018-06-13T13:24:45.461Z,2.00
2018-06-13T13:25:45.796Z,1.80
2018-06-13T13:26:45.791Z,2.10
2018-06-13T13:28:45.273Z,1.90
2018-06-13T13:29:45.293Z,1.80
2018-06-13T13:30:45.313Z,2.00
2018-06-13T13:31:45.336Z,1.60
2018-06-13T13:32:45.356Z,1.90
2018-06-13T13:33:45.736Z,2.10
2018-06-13T13:34:45.537Z,2.20
2018-06-13T13:35:45.506Z,1.80
2018-06-13T13:36:45.603Z,2.00
2018-06-13T13:37:45.464Z,1.80
2018-06-13T13:38:45.489Z,1.90
2018-06-13T13:39:45.631Z,1.80
2018-06-13T13:40:45.569Z,1.80
2018-06-13T13:41:45.547Z,2.10
2018-06-13T13:42:45.569Z,1.70
2018-06-13T13:43:45.660Z,1.70
2018-06-13T13:44:45.610Z,2.10
2018-06-13T13:45:45.795Z,2.10
2018-06-13T13:46:45.659Z,2.10
2018-06-13T13:47:45.674Z,2.00
2018-06-13T13:48:45.695Z,1.90
2018-06-13T13:49:45.723Z,2.10
2018-06-13T13:50:45.784Z,1.90
2018-06-13T13:51:46.119Z,2.00
2018-06-13T13:52:45.933Z,1.90
2018-06-13T13:53:45.824Z,2.00
2018-06-13T13:54:45.890Z,2.20
2018-06-13T13:56:45.872Z,1.90
2018-06-13T13:57:46.345Z,1.90
2018-06-13T13:58:46.087Z,1.80
2018-06-13T13:59:46.074Z,1.90
2018-06-13T14:00:46.417Z,1.70
2018-06-13T14:01:46.093Z,1.80
2018-06-13T14:02:46.175Z,1.80
2018-06-13T14:03:46.136Z,2.00